sensor_id;sensor_type;location;lat;lon;timestamp;P1;durP1;ratioP1;P2;durP2;ratioP2
31262;SDS011;17892;52.080;9.006;2022-10-29T00:00:35;9.38;;;3.60;;
31262;SDS011;17892;52.080;9.006;2022-10-29T00:03:01;8.30;;;3.95;;
31262;SDS011;17892;52.080;9.006;2022-10-29T00:05:27;12.93;;;4.57;;
31262;SDS011;17892;52.080;9.006;2022-10-29T00:07:53;7.38;;;3.53;;
31262;SDS011;17892;52.080;9.006;2022-10-29T00:10:18;10.98;;;3.78;;
31262;SDS011;17892;52.080;9.006;2022-10-29T00:12:44;7.32;;;3.08;;
31262;SDS011;17892;52.080;9.006;2022-10-29T00:15:10;8.07;;;3.75;;
31262;SDS011;17892;52.080;9.006;2022-10-29T00:17:36;9.15;;;3.38;;
31262;SDS011;17892;52.080;9.006;2022-10-29T00:20:02;11.25;;;3.88;;
31262;SDS011;17892;52.080;9.006;2022-10-29T00:22:28;14.70;;;5.05;;
31262;SDS011;17892;52.080;9.006;2022-10-29T00:24:53;14.35;;;4.05;;
31262;SDS011;17892;52.080;9.006;2022-10-29T00:27:19;8.90;;;3.95;;
31262;SDS011;17892;52.080;9.006;2022-10-29T00:29:45;7.32;;;3.50;;
31262;SDS011;17892;52.080;9.006;2022-10-29T00:32:10;9.00;;;3.47;;
31262;SDS011;17892;52.080;9.006;2022-10-29T00:34:36;8.80;;;2.85;;
31262;SDS011;17892;52.080;9.006;2022-10-29T00:37:03;15.35;;;4.25;;
31262;SDS011;17892;52.080;9.006;2022-10-29T00:39:28;10.07;;;4.32;;
31262;SDS011;17892;52.080;9.006;2022-10-29T00:41:57;13.20;;;4.20;;
31262;SDS011;17892;52.080;9.006;2022-10-29T00:44:29;7.05;;;3.03;;
31262;SDS011;17892;52.080;9.006;2022-10-29T00:46:57;8.32;;;3.47;;
31262;SDS011;17892;52.080;9.006;2022-10-29T00:49:28;10.70;;;4.03;;
31262;SDS011;17892;52.080;9.006;2022-10-29T00:51:57;6.43;;;3.30;;
31262;SDS011;17892;52.080;9.006;2022-10-29T00:54:27;13.63;;;4.65;;
31262;SDS011;17892;52.080;9.006;2022-10-29T00:56:57;8.27;;;4.72;;
31262;SDS011;17892;52.080;9.006;2022-10-29T00:59:30;9.95;;;3.40;;
31262;SDS011;17892;52.080;9.006;2022-10-29T01:01:56;7.32;;;4.55;;
31262;SDS011;17892;52.080;9.006;2022-10-29T01:04:22;13.88;;;4.22;;
31262;SDS011;17892;52.080;9.006;2022-10-29T01:06:48;19.05;;;5.72;;
31262;SDS011;17892;52.080;9.006;2022-10-29T01:09:15;13.18;;;4.57;;
31262;SDS011;17892;52.080;9.006;2022-10-29T01:11:51;10.15;;;4.05;;
31262;SDS011;17892;52.080;9.006;2022-10-29T01:20:14;9.40;;;4.65;;
31262;SDS011;17892;52.080;9.006;2022-10-29T01:26:08;7.90;;;4.10;;
31262;SDS011;17892;52.080;9.006;2022-10-29T01:31:51;8.52;;;3.78;;
31262;SDS011;17892;52.080;9.006;2022-10-29T01:38:09;14.57;;;4.30;;
31262;SDS011;17892;52.080;9.006;2022-10-29T01:40:57;8.40;;;4.43;;
31262;SDS011;17892;52.080;9.006;2022-10-29T01:43:44;11.10;;;4.03;;
31262;SDS011;17892;52.080;9.006;2022-10-29T01:46:19;9.88;;;4.00;;
31262;SDS011;17892;52.080;9.006;2022-10-29T01:48:53;12.18;;;4.57;;
31262;SDS011;17892;52.080;9.006;2022-10-29T01:51:22;13.95;;;3.97;;
31262;SDS011;17892;52.080;9.006;2022-10-29T01:53:52;11.90;;;4.90;;
31262;SDS011;17892;52.080;9.006;2022-10-29T01:56:19;14.95;;;4.82;;
31262;SDS011;17892;52.080;9.006;2022-10-29T01:58:46;15.45;;;4.57;;
31262;SDS011;17892;52.080;9.006;2022-10-29T02:04:19;10.25;;;4.45;;
31262;SDS011;17892;52.080;9.006;2022-10-29T02:07:19;10.88;;;4.57;;
31262;SDS011;17892;52.080;9.006;2022-10-29T02:12:58;12.45;;;5.82;;
31262;SDS011;17892;52.080;9.006;2022-10-29T02:15:29;13.98;;;4.38;;
31262;SDS011;17892;52.080;9.006;2022-10-29T02:18:01;5.63;;;3.58;;
31262;SDS011;17892;52.080;9.006;2022-10-29T02:20:29;14.07;;;5.80;;
31262;SDS011;17892;52.080;9.006;2022-10-29T02:22:55;8.95;;;3.70;;
31262;SDS011;17892;52.080;9.006;2022-10-29T02:25:21;11.90;;;4.40;;
31262;SDS011;17892;52.080;9.006;2022-10-29T02:27:47;11.85;;;4.07;;
31262;SDS011;17892;52.080;9.006;2022-10-29T02:30:13;7.30;;;4.40;;
31262;SDS011;17892;52.080;9.006;2022-10-29T02:32:39;7.53;;;4.25;;
31262;SDS011;17892;52.080;9.006;2022-10-29T02:35:05;9.35;;;4.50;;
31262;SDS011;17892;52.080;9.006;2022-10-29T02:37:31;6.03;;;4.28;;
31262;SDS011;17892;52.080;9.006;2022-10-29T02:39:57;7.45;;;4.30;;
31262;SDS011;17892;52.080;9.006;2022-10-29T02:42:23;9.82;;;3.92;;
31262;SDS011;17892;52.080;9.006;2022-10-29T02:44:48;8.45;;;3.70;;
31262;SDS011;17892;52.080;9.006;2022-10-29T02:47:14;15.98;;;4.38;;
31262;SDS011;17892;52.080;9.006;2022-10-29T02:49:40;8.93;;;3.88;;
31262;SDS011;17892;52.080;9.006;2022-10-29T02:52:06;7.82;;;3.58;;
31262;SDS011;17892;52.080;9.006;2022-10-29T02:54:32;8.20;;;5.03;;
31262;SDS011;17892;52.080;9.006;2022-10-29T02:56:58;12.38;;;3.92;;
31262;SDS011;17892;52.080;9.006;2022-10-29T02:59:23;9.15;;;4.47;;
31262;SDS011;17892;52.080;9.006;2022-10-29T03:01:49;11.73;;;4.72;;
31262;SDS011;17892;52.080;9.006;2022-10-29T03:04:15;7.88;;;4.80;;
31262;SDS011;17892;52.080;9.006;2022-10-29T03:06:40;5.55;;;3.42;;
31262;SDS011;17892;52.080;9.006;2022-10-29T03:09:06;10.70;;;5.20;;
31262;SDS011;17892;52.080;9.006;2022-10-29T03:11:32;8.88;;;4.53;;
31262;SDS011;17892;52.080;9.006;2022-10-29T03:13:58;10.77;;;4.43;;
31262;SDS011;17892;52.080;9.006;2022-10-29T03:16:24;7.72;;;4.57;;
31262;SDS011;17892;52.080;9.006;2022-10-29T03:18:49;6.20;;;3.25;;
31262;SDS011;17892;52.080;9.006;2022-10-29T03:21:15;8.40;;;2.78;;
31262;SDS011;17892;52.080;9.006;2022-10-29T03:23:41;8.18;;;3.75;;
31262;SDS011;17892;52.080;9.006;2022-10-29T03:26:07;8.68;;;3.42;;
31262;SDS011;17892;52.080;9.006;2022-10-29T03:28:35;8.55;;;4.60;;
31262;SDS011;17892;52.080;9.006;2022-10-29T03:31:00;8.60;;;4.82;;
31262;SDS011;17892;52.080;9.006;2022-10-29T03:33:27;7.78;;;5.35;;
31262;SDS011;17892;52.080;9.006;2022-10-29T03:35:59;11.38;;;5.68;;
31262;SDS011;17892;52.080;9.006;2022-10-29T03:38:29;12.15;;;4.78;;
31262;SDS011;17892;52.080;9.006;2022-10-29T03:40:55;13.55;;;4.55;;
31262;SDS011;17892;52.080;9.006;2022-10-29T03:43:21;10.25;;;4.38;;
31262;SDS011;17892;52.080;9.006;2022-10-29T03:45:53;8.70;;;5.53;;
31262;SDS011;17892;52.080;9.006;2022-10-29T03:48:22;10.35;;;5.35;;
31262;SDS011;17892;52.080;9.006;2022-10-29T03:51:01;10.73;;;4.45;;
31262;SDS011;17892;52.080;9.006;2022-10-29T03:53:30;9.40;;;3.97;;
31262;SDS011;17892;52.080;9.006;2022-10-29T03:55:56;12.45;;;6.25;;
31262;SDS011;17892;52.080;9.006;2022-10-29T03:58:22;7.80;;;5.05;;
31262;SDS011;17892;52.080;9.006;2022-10-29T04:00:57;11.77;;;4.90;;
31262;SDS011;17892;52.080;9.006;2022-10-29T04:03:25;11.63;;;4.95;;
31262;SDS011;17892;52.080;9.006;2022-10-29T04:05:54;10.15;;;5.63;;
31262;SDS011;17892;52.080;9.006;2022-10-29T04:08:21;12.45;;;5.60;;
31262;SDS011;17892;52.080;9.006;2022-10-29T04:10:47;9.27;;;5.13;;
31262;SDS011;17892;52.080;9.006;2022-10-29T04:13:14;11.30;;;5.82;;
31262;SDS011;17892;52.080;9.006;2022-10-29T04:15:41;13.25;;;5.43;;
31262;SDS011;17892;52.080;9.006;2022-10-29T04:18:07;14.70;;;7.55;;
31262;SDS011;17892;52.080;9.006;2022-10-29T04:20:34;14.30;;;7.45;;
31262;SDS011;17892;52.080;9.006;2022-10-29T04:23:01;14.55;;;7.38;;
31262;SDS011;17892;52.080;9.006;2022-10-29T04:25:28;14.18;;;6.78;;
31262;SDS011;17892;52.080;9.006;2022-10-29T04:27:54;10.75;;;7.22;;
31262;SDS011;17892;52.080;9.006;2022-10-29T04:30:20;12.27;;;6.80;;
31262;SDS011;17892;52.080;9.006;2022-10-29T04:32:47;10.80;;;7.05;;
31262;SDS011;17892;52.080;9.006;2022-10-29T04:35:12;10.68;;;6.07;;
31262;SDS011;17892;52.080;9.006;2022-10-29T04:37:38;12.75;;;5.57;;
31262;SDS011;17892;52.080;9.006;2022-10-29T04:40:04;9.10;;;6.00;;
31262;SDS011;17892;52.080;9.006;2022-10-29T04:42:39;9.70;;;5.57;;
31262;SDS011;17892;52.080;9.006;2022-10-29T04:45:06;9.35;;;5.78;;
31262;SDS011;17892;52.080;9.006;2022-10-29T04:47:33;12.52;;;5.82;;
31262;SDS011;17892;52.080;9.006;2022-10-29T04:49:58;23.35;;;6.05;;
31262;SDS011;17892;52.080;9.006;2022-10-29T04:52:24;11.65;;;6.28;;
31262;SDS011;17892;52.080;9.006;2022-10-29T04:54:50;14.20;;;6.40;;
31262;SDS011;17892;52.080;9.006;2022-10-29T04:57:16;11.35;;;7.00;;
31262;SDS011;17892;52.080;9.006;2022-10-29T04:59:42;10.93;;;5.05;;
31262;SDS011;17892;52.080;9.006;2022-10-29T05:02:08;11.75;;;6.30;;
31262;SDS011;17892;52.080;9.006;2022-10-29T05:04:34;9.40;;;5.78;;
31262;SDS011;17892;52.080;9.006;2022-10-29T05:07:00;9.10;;;6.00;;
31262;SDS011;17892;52.080;9.006;2022-10-29T05:09:26;14.60;;;5.55;;
31262;SDS011;17892;52.080;9.006;2022-10-29T05:11:52;8.30;;;4.45;;
31262;SDS011;17892;52.080;9.006;2022-10-29T05:14:17;11.65;;;5.97;;
31262;SDS011;17892;52.080;9.006;2022-10-29T05:16:43;13.65;;;5.65;;
31262;SDS011;17892;52.080;9.006;2022-10-29T05:19:09;15.55;;;7.43;;
31262;SDS011;17892;52.080;9.006;2022-10-29T05:21:34;14.32;;;6.20;;
31262;SDS011;17892;52.080;9.006;2022-10-29T05:24:00;13.70;;;6.43;;
31262;SDS011;17892;52.080;9.006;2022-10-29T05:26:25;16.27;;;6.20;;
31262;SDS011;17892;52.080;9.006;2022-10-29T05:28:55;11.25;;;6.20;;
31262;SDS011;17892;52.080;9.006;2022-10-29T05:31:20;12.63;;;7.25;;
31262;SDS011;17892;52.080;9.006;2022-10-29T05:33:46;13.55;;;7.47;;
31262;SDS011;17892;52.080;9.006;2022-10-29T05:36:12;9.52;;;6.32;;
31262;SDS011;17892;52.080;9.006;2022-10-29T05:38:38;10.38;;;5.80;;
31262;SDS011;17892;52.080;9.006;2022-10-29T05:41:03;12.15;;;6.40;;
31262;SDS011;17892;52.080;9.006;2022-10-29T05:43:29;12.68;;;6.68;;
31262;SDS011;17892;52.080;9.006;2022-10-29T05:45:55;15.70;;;7.68;;
31262;SDS011;17892;52.080;9.006;2022-10-29T05:48:20;11.35;;;7.13;;
31262;SDS011;17892;52.080;9.006;2022-10-29T05:50:46;12.15;;;6.63;;
31262;SDS011;17892;52.080;9.006;2022-10-29T05:53:12;17.40;;;7.72;;
31262;SDS011;17892;52.080;9.006;2022-10-29T05:55:39;13.85;;;6.50;;
31262;SDS011;17892;52.080;9.006;2022-10-29T05:58:08;15.32;;;7.28;;
31262;SDS011;17892;52.080;9.006;2022-10-29T06:00:37;11.93;;;6.93;;
31262;SDS011;17892;52.080;9.006;2022-10-29T06:03:13;8.18;;;5.82;;
31262;SDS011;17892;52.080;9.006;2022-10-29T06:05:41;15.15;;;5.95;;
31262;SDS011;17892;52.080;9.006;2022-10-29T06:08:07;12.13;;;5.20;;
31262;SDS011;17892;52.080;9.006;2022-10-29T06:10:34;11.45;;;5.63;;
31262;SDS011;17892;52.080;9.006;2022-10-29T06:12:59;10.73;;;5.13;;
31262;SDS011;17892;52.080;9.006;2022-10-29T06:15:25;10.45;;;5.40;;
31262;SDS011;17892;52.080;9.006;2022-10-29T06:17:51;13.23;;;6.22;;
31262;SDS011;17892;52.080;9.006;2022-10-29T06:20:18;10.77;;;5.82;;
31262;SDS011;17892;52.080;9.006;2022-10-29T06:22:45;8.15;;;5.70;;
31262;SDS011;17892;52.080;9.006;2022-10-29T06:25:11;7.78;;;5.07;;
31262;SDS011;17892;52.080;9.006;2022-10-29T06:27:37;12.00;;;4.82;;
31262;SDS011;17892;52.080;9.006;2022-10-29T06:30:03;9.43;;;4.70;;
31262;SDS011;17892;52.080;9.006;2022-10-29T06:32:30;11.48;;;6.30;;
31262;SDS011;17892;52.080;9.006;2022-10-29T06:34:56;8.48;;;4.40;;
31262;SDS011;17892;52.080;9.006;2022-10-29T06:37:22;14.05;;;7.10;;
31262;SDS011;17892;52.080;9.006;2022-10-29T06:39:48;9.50;;;5.60;;
31262;SDS011;17892;52.080;9.006;2022-10-29T06:42:13;11.38;;;6.30;;
31262;SDS011;17892;52.080;9.006;2022-10-29T06:44:39;12.30;;;5.90;;
31262;SDS011;17892;52.080;9.006;2022-10-29T06:47:05;8.27;;;5.10;;
31262;SDS011;17892;52.080;9.006;2022-10-29T06:49:30;9.63;;;5.82;;
31262;SDS011;17892;52.080;9.006;2022-10-29T06:51:56;12.25;;;5.43;;
31262;SDS011;17892;52.080;9.006;2022-10-29T06:54:22;9.20;;;5.55;;
31262;SDS011;17892;52.080;9.006;2022-10-29T06:56:48;12.40;;;5.38;;
31262;SDS011;17892;52.080;9.006;2022-10-29T06:59:13;9.68;;;4.55;;
31262;SDS011;17892;52.080;9.006;2022-10-29T07:01:39;11.98;;;5.07;;
31262;SDS011;17892;52.080;9.006;2022-10-29T07:04:05;9.50;;;4.80;;
31262;SDS011;17892;52.080;9.006;2022-10-29T07:06:31;8.57;;;5.75;;
31262;SDS011;17892;52.080;9.006;2022-10-29T07:09:00;7.90;;;4.75;;
31262;SDS011;17892;52.080;9.006;2022-10-29T07:11:26;14.55;;;6.32;;
31262;SDS011;17892;52.080;9.006;2022-10-29T07:13:51;10.75;;;4.82;;
31262;SDS011;17892;52.080;9.006;2022-10-29T07:16:17;11.38;;;5.25;;
31262;SDS011;17892;52.080;9.006;2022-10-29T07:18:43;11.10;;;5.63;;
31262;SDS011;17892;52.080;9.006;2022-10-29T07:21:08;8.70;;;5.38;;
31262;SDS011;17892;52.080;9.006;2022-10-29T07:23:34;8.73;;;4.93;;
31262;SDS011;17892;52.080;9.006;2022-10-29T07:26:00;8.98;;;4.78;;
31262;SDS011;17892;52.080;9.006;2022-10-29T07:28:26;11.65;;;5.63;;
31262;SDS011;17892;52.080;9.006;2022-10-29T07:30:56;14.10;;;5.38;;
31262;SDS011;17892;52.080;9.006;2022-10-29T07:33:24;7.60;;;3.90;;
31262;SDS011;17892;52.080;9.006;2022-10-29T07:35:54;9.48;;;3.88;;
31262;SDS011;17892;52.080;9.006;2022-10-29T07:38:22;10.52;;;5.45;;
31262;SDS011;17892;52.080;9.006;2022-10-29T07:40:48;10.73;;;5.55;;
31262;SDS011;17892;52.080;9.006;2022-10-29T07:43:15;12.73;;;4.93;;
31262;SDS011;17892;52.080;9.006;2022-10-29T07:45:43;7.10;;;4.60;;
31262;SDS011;17892;52.080;9.006;2022-10-29T07:48:10;11.05;;;4.57;;
31262;SDS011;17892;52.080;9.006;2022-10-29T07:50:36;9.30;;;4.78;;
31262;SDS011;17892;52.080;9.006;2022-10-29T07:53:03;8.30;;;4.50;;
31262;SDS011;17892;52.080;9.006;2022-10-29T07:55:31;7.07;;;4.55;;
31262;SDS011;17892;52.080;9.006;2022-10-29T07:58:00;10.25;;;5.15;;
31262;SDS011;17892;52.080;9.006;2022-10-29T08:00:30;12.82;;;6.78;;
31262;SDS011;17892;52.080;9.006;2022-10-29T08:02:58;12.55;;;5.18;;
31262;SDS011;17892;52.080;9.006;2022-10-29T08:05:24;12.70;;;5.28;;
31262;SDS011;17892;52.080;9.006;2022-10-29T08:07:54;12.52;;;5.82;;
31262;SDS011;17892;52.080;9.006;2022-10-29T08:10:20;13.55;;;6.22;;
31262;SDS011;17892;52.080;9.006;2022-10-29T08:12:48;12.20;;;5.47;;
31262;SDS011;17892;52.080;9.006;2022-10-29T08:15:15;9.48;;;4.05;;
31262;SDS011;17892;52.080;9.006;2022-10-29T08:17:42;9.02;;;4.32;;
31262;SDS011;17892;52.080;9.006;2022-10-29T08:20:08;13.90;;;4.53;;
31262;SDS011;17892;52.080;9.006;2022-10-29T08:22:34;16.85;;;4.75;;
31262;SDS011;17892;52.080;9.006;2022-10-29T08:25:00;8.48;;;4.40;;
31262;SDS011;17892;52.080;9.006;2022-10-29T08:27:26;9.38;;;3.85;;
31262;SDS011;17892;52.080;9.006;2022-10-29T08:29:52;6.53;;;3.15;;
31262;SDS011;17892;52.080;9.006;2022-10-29T08:32:17;12.63;;;4.63;;
31262;SDS011;17892;52.080;9.006;2022-10-29T08:34:43;9.75;;;4.15;;
31262;SDS011;17892;52.080;9.006;2022-10-29T08:37:09;6.45;;;4.00;;
31262;SDS011;17892;52.080;9.006;2022-10-29T08:39:34;9.98;;;3.85;;
31262;SDS011;17892;52.080;9.006;2022-10-29T08:45:36;6.70;;;2.97;;
31262;SDS011;17892;52.080;9.006;2022-10-29T08:48:16;5.75;;;3.20;;
31262;SDS011;17892;52.080;9.006;2022-10-29T08:50:58;9.73;;;3.45;;
31262;SDS011;17892;52.080;9.006;2022-10-29T08:53:34;7.80;;;3.80;;
31262;SDS011;17892;52.080;9.006;2022-10-29T08:56:12;10.32;;;3.80;;
31262;SDS011;17892;52.080;9.006;2022-10-29T09:01:48;11.52;;;4.22;;
31262;SDS011;17892;52.080;9.006;2022-10-29T09:04:33;9.25;;;4.15;;
31262;SDS011;17892;52.080;9.006;2022-10-29T09:21:08;8.73;;;3.47;;
31262;SDS011;17892;52.080;9.006;2022-10-29T09:24:00;11.05;;;3.55;;
31262;SDS011;17892;52.080;9.006;2022-10-29T09:32:03;7.28;;;3.25;;
31262;SDS011;17892;52.080;9.006;2022-10-29T09:35:11;9.75;;;3.65;;
31262;SDS011;17892;52.080;9.006;2022-10-29T09:37:44;8.02;;;3.47;;
31262;SDS011;17892;52.080;9.006;2022-10-29T09:40:27;6.32;;;3.60;;
31262;SDS011;17892;52.080;9.006;2022-10-29T09:43:00;9.05;;;3.47;;
31262;SDS011;17892;52.080;9.006;2022-10-29T09:45:41;8.95;;;3.72;;
31262;SDS011;17892;52.080;9.006;2022-10-29T09:48:53;9.40;;;3.75;;
31262;SDS011;17892;52.080;9.006;2022-10-29T09:54:05;13.50;;;3.80;;
31262;SDS011;17892;52.080;9.006;2022-10-29T09:56:30;6.35;;;2.40;;
31262;SDS011;17892;52.080;9.006;2022-10-29T09:59:02;7.38;;;3.05;;
31262;SDS011;17892;52.080;9.006;2022-10-29T10:01:55;5.47;;;2.65;;
31262;SDS011;17892;52.080;9.006;2022-10-29T10:04:26;11.18;;;3.85;;
31262;SDS011;17892;52.080;9.006;2022-10-29T10:07:06;5.82;;;2.47;;
31262;SDS011;17892;52.080;9.006;2022-10-29T10:12:22;6.75;;;2.92;;
31262;SDS011;17892;52.080;9.006;2022-10-29T10:15:01;8.57;;;2.92;;
31262;SDS011;17892;52.080;9.006;2022-10-29T10:17:30;8.77;;;3.03;;
31262;SDS011;17892;52.080;9.006;2022-10-29T10:20:59;6.13;;;2.88;;
31262;SDS011;17892;52.080;9.006;2022-10-29T10:23:48;4.72;;;2.53;;
31262;SDS011;17892;52.080;9.006;2022-10-29T10:26:36;9.18;;;2.80;;
31262;SDS011;17892;52.080;9.006;2022-10-29T10:31:39;9.65;;;3.47;;
31262;SDS011;17892;52.080;9.006;2022-10-29T10:34:14;8.75;;;3.08;;
31262;SDS011;17892;52.080;9.006;2022-10-29T10:42:00;6.55;;;2.65;;
31262;SDS011;17892;52.080;9.006;2022-10-29T10:44:31;6.25;;;2.85;;
31262;SDS011;17892;52.080;9.006;2022-10-29T10:46:58;8.48;;;2.63;;
31262;SDS011;17892;52.080;9.006;2022-10-29T10:49:31;6.38;;;3.20;;
31262;SDS011;17892;52.080;9.006;2022-10-29T10:52:13;4.43;;;2.40;;
31262;SDS011;17892;52.080;9.006;2022-10-29T10:59:48;10.23;;;3.63;;
31262;SDS011;17892;52.080;9.006;2022-10-29T11:02:27;6.82;;;2.92;;
31262;SDS011;17892;52.080;9.006;2022-10-29T11:05:18;10.43;;;2.83;;
31262;SDS011;17892;52.080;9.006;2022-10-29T11:08:10;3.95;;;2.28;;
31262;SDS011;17892;52.080;9.006;2022-10-29T11:10:53;15.55;;;4.05;;
31262;SDS011;17892;52.080;9.006;2022-10-29T11:13:25;5.18;;;2.67;;
31262;SDS011;17892;52.080;9.006;2022-10-29T11:18:24;5.10;;;2.63;;
31262;SDS011;17892;52.080;9.006;2022-10-29T11:21:05;3.75;;;2.60;;
31262;SDS011;17892;52.080;9.006;2022-10-29T11:23:42;11.10;;;3.25;;
31262;SDS011;17892;52.080;9.006;2022-10-29T11:26:31;6.55;;;2.20;;
31262;SDS011;17892;52.080;9.006;2022-10-29T11:34:54;5.60;;;2.15;;
31262;SDS011;17892;52.080;9.006;2022-10-29T11:43:22;7.40;;;2.38;;
31262;SDS011;17892;52.080;9.006;2022-10-29T11:45:55;6.68;;;2.20;;
31262;SDS011;17892;52.080;9.006;2022-10-29T11:49:04;9.13;;;3.73;;
